sensor_id;sensor_type;location;lat;lon;timestamp;pressure;altitude;pressure_sealevel;temperature;humidity
34073;BME280;20346;52.702;16.886;2022-07-21T00:01:55;101152.66;;;24.46;41.16
34073;BME280;20346;52.702;16.886;2022-07-21T00:04:21;101146.38;;;24.41;41.09
34073;BME280;20346;52.702;16.886;2022-07-21T00:06:48;101153.19;;;24.38;41.19
34073;BME280;20346;52.702;16.886;2022-07-21T00:09:15;101155.56;;;24.36;41.28
34073;BME280;20346;52.702;16.886;2022-07-21T00:11:42;101153.69;;;24.31;41.36
34073;BME280;20346;52.702;16.886;2022-07-21T00:14:09;101154.73;;;24.28;41.41
34073;BME280;20346;52.702;16.886;2022-07-21T00:16:37;101149.53;;;24.20;41.54
34073;BME280;20346;52.702;16.886;2022-07-21T00:19:10;101150.12;;;24.10;41.56
34073;BME280;20346;52.702;16.886;2022-07-21T00:21:38;101152.03;;;24.01;41.73
34073;BME280;20346;52.702;16.886;2022-07-21T00:24:04;101148.08;;;23.94;41.83
34073;BME280;20346;52.702;16.886;2022-07-21T00:26:34;101146.61;;;23.83;41.94
34073;BME280;20346;52.702;16.886;2022-07-21T00:29:01;101143.70;;;23.73;42.04
34073;BME280;20346;52.702;16.886;2022-07-21T00:31:28;101140.59;;;23.67;42.19
34073;BME280;20346;52.702;16.886;2022-07-21T00:33:54;101136.31;;;23.50;42.48
34073;BME280;20346;52.702;16.886;2022-07-21T00:36:21;101136.31;;;23.50;42.48
34073;BME280;20346;52.702;16.886;2022-07-21T00:38:48;101134.80;;;23.46;42.45
34073;BME280;20346;52.702;16.886;2022-07-21T00:41:15;101132.83;;;23.42;42.49
34073;BME280;20346;52.702;16.886;2022-07-21T00:43:43;101125.13;;;23.39;42.62
34073;BME280;20346;52.702;16.886;2022-07-21T00:46:10;101141.05;;;23.38;42.71
34073;BME280;20346;52.702;16.886;2022-07-21T00:48:36;101129.93;;;23.33;42.77
34073;BME280;20346;52.702;16.886;2022-07-21T00:51:04;101122.58;;;23.31;42.86
34073;BME280;20346;52.702;16.886;2022-07-21T00:53:31;101116.54;;;23.29;42.97
34073;BME280;20346;52.702;16.886;2022-07-21T00:55:59;101118.14;;;23.24;43.05
34073;BME280;20346;52.702;16.886;2022-07-21T00:58:27;101112.11;;;23.22;43.13
34073;BME280;20346;52.702;16.886;2022-07-21T01:00:53;101109.75;;;23.18;43.26
34073;BME280;20346;52.702;16.886;2022-07-21T01:03:19;101114.36;;;23.14;43.35
34073;BME280;20346;52.702;16.886;2022-07-21T01:05:46;101115.86;;;23.11;43.46
34073;BME280;20346;52.702;16.886;2022-07-21T01:08:13;101113.70;;;23.10;43.51
34073;BME280;20346;52.702;16.886;2022-07-21T01:10:40;101112.56;;;23.07;43.59
34073;BME280;20346;52.702;16.886;2022-07-21T01:13:06;101109.16;;;23.05;43.75
34073;BME280;20346;52.702;16.886;2022-07-21T01:15:45;101118.96;;;23.03;43.76
34073;BME280;20346;52.702;16.886;2022-07-21T01:18:12;101107.92;;;22.97;43.88
34073;BME280;20346;52.702;16.886;2022-07-21T01:20:40;101109.52;;;22.92;43.92
34073;BME280;20346;52.702;16.886;2022-07-21T01:23:07;101106.98;;;22.84;43.98
34073;BME280;20346;52.702;16.886;2022-07-21T01:25:34;101116.08;;;22.78;44.13
34073;BME280;20346;52.702;16.886;2022-07-21T01:28:02;101116.25;;;22.75;44.20
34073;BME280;20346;52.702;16.886;2022-07-21T01:30:29;101117.28;;;22.72;44.28
34073;BME280;20346;52.702;16.886;2022-07-21T01:32:55;101116.79;;;22.66;44.34
34073;BME280;20346;52.702;16.886;2022-07-21T01:35:21;101120.45;;;22.63;44.40
34073;BME280;20346;52.702;16.886;2022-07-21T01:37:48;101116.20;;;22.61;44.47
34073;BME280;20346;52.702;16.886;2022-07-21T01:40:16;101122.33;;;22.61;44.53
34073;BME280;20346;52.702;16.886;2022-07-21T01:43:01;101124.03;;;22.62;44.54
34073;BME280;20346;52.702;16.886;2022-07-21T01:45:38;101122.89;;;22.59;44.60
34073;BME280;20346;52.702;16.886;2022-07-21T01:48:08;101116.18;;;22.54;44.68
34073;BME280;20346;52.702;16.886;2022-07-21T01:50:34;101114.95;;;22.52;44.78
34073;BME280;20346;52.702;16.886;2022-07-21T01:53:03;101110.33;;;22.49;44.96
34073;BME280;20346;52.702;16.886;2022-07-21T01:55:29;101115.19;;;22.40;44.84
34073;BME280;20346;52.702;16.886;2022-07-21T01:58:00;101119.52;;;22.34;44.96
34073;BME280;20346;52.702;16.886;2022-07-21T02:00:32;101119.14;;;22.33;45.05
34073;BME280;20346;52.702;16.886;2022-07-21T02:02:59;101116.59;;;22.32;45.15
34073;BME280;20346;52.702;16.886;2022-07-21T02:05:25;101116.13;;;22.32;45.18
34073;BME280;20346;52.702;16.886;2022-07-21T02:07:52;101112.81;;;22.29;45.27
34073;BME280;20346;52.702;16.886;2022-07-21T02:10:18;101116.00;;;22.27;45.31
34073;BME280;20346;52.702;16.886;2022-07-21T02:12:45;101107.59;;;22.20;45.42
34073;BME280;20346;52.702;16.886;2022-07-21T02:15:11;101103.81;;;22.17;45.49
34073;BME280;20346;52.702;16.886;2022-07-21T02:17:37;101103.69;;;22.11;45.59
34073;BME280;20346;52.702;16.886;2022-07-21T02:20:05;101096.98;;;22.06;45.68
34073;BME280;20346;52.702;16.886;2022-07-21T02:22:38;101099.41;;;22.02;45.79
34073;BME280;20346;52.702;16.886;2022-07-21T02:25:04;101102.03;;;22.02;45.89
34073;BME280;20346;52.702;16.886;2022-07-21T02:27:31;101100.86;;;21.99;45.93
34073;BME280;20346;52.702;16.886;2022-07-21T02:30:04;101104.80;;;21.99;46.01
34073;BME280;20346;52.702;16.886;2022-07-21T02:32:32;101097.08;;;21.96;46.11
34073;BME280;20346;52.702;16.886;2022-07-21T02:37:24;101092.87;;;21.85;46.26
34073;BME280;20346;52.702;16.886;2022-07-21T02:39:54;101094.47;;;21.80;46.35
34073;BME280;20346;52.702;16.886;2022-07-21T02:42:20;101093.79;;;21.76;46.46
34073;BME280;20346;52.702;16.886;2022-07-21T02:44:47;101083.42;;;21.73;46.52
34073;BME280;20346;52.702;16.886;2022-07-21T02:47:13;101083.77;;;21.67;46.57
34073;BME280;20346;52.702;16.886;2022-07-21T02:49:39;101084.39;;;21.64;46.68
34073;BME280;20346;52.702;16.886;2022-07-21T02:52:06;101088.67;;;21.58;46.73
34073;BME280;20346;52.702;16.886;2022-07-21T02:54:33;101084.05;;;21.54;46.83
34073;BME280;20346;52.702;16.886;2022-07-21T02:57:00;101084.97;;;21.53;46.89
34073;BME280;20346;52.702;16.886;2022-07-21T02:59:26;101089.00;;;21.52;46.96
34073;BME280;20346;52.702;16.886;2022-07-21T03:01:52;101092.70;;;21.56;46.99
34073;BME280;20346;52.702;16.886;2022-07-21T03:04:19;101085.83;;;21.54;47.05
34073;BME280;20346;52.702;16.886;2022-07-21T03:06:46;101082.64;;;21.56;47.15
34073;BME280;20346;52.702;16.886;2022-07-21T03:09:12;101085.03;;;21.60;47.14
34073;BME280;20346;52.702;16.886;2022-07-21T03:11:39;101086.51;;;21.57;47.20
34073;BME280;20346;52.702;16.886;2022-07-21T03:14:05;101083.11;;;21.55;47.28
34073;BME280;20346;52.702;16.886;2022-07-21T03:16:32;101080.64;;;21.52;47.32
34073;BME280;20346;52.702;16.886;2022-07-21T03:18:58;101085.05;;;21.52;47.37
34073;BME280;20346;52.702;16.886;2022-07-21T03:21:24;101078.39;;;21.53;47.47
34073;BME280;20346;52.702;16.886;2022-07-21T03:23:51;101072.03;;;21.57;47.47
34073;BME280;20346;52.702;16.886;2022-07-21T03:26:18;101069.40;;;21.57;47.54
34073;BME280;20346;52.702;16.886;2022-07-21T03:28:44;101064.44;;;21.60;47.61
34073;BME280;20346;52.702;16.886;2022-07-21T03:31:11;101060.33;;;21.63;47.66
34073;BME280;20346;52.702;16.886;2022-07-21T03:33:37;101050.73;;;21.62;47.83
34073;BME280;20346;52.702;16.886;2022-07-21T03:36:04;101051.03;;;21.64;47.65
34073;BME280;20346;52.702;16.886;2022-07-21T03:38:30;101053.96;;;21.67;47.72
34073;BME280;20346;52.702;16.886;2022-07-21T03:40:56;101057.82;;;21.68;47.87
34073;BME280;20346;52.702;16.886;2022-07-21T03:43:23;101061.98;;;21.72;47.75
34073;BME280;20346;52.702;16.886;2022-07-21T03:45:50;101067.84;;;21.77;47.83
34073;BME280;20346;52.702;16.886;2022-07-21T03:48:16;101079.52;;;21.80;47.87
34073;BME280;20346;52.702;16.886;2022-07-21T03:50:43;101074.06;;;21.84;47.91
34073;BME280;20346;52.702;16.886;2022-07-21T03:53:09;101075.03;;;21.90;47.96
34073;BME280;20346;52.702;16.886;2022-07-21T03:55:39;101068.66;;;21.94;47.99
34073;BME280;20346;52.702;16.886;2022-07-21T03:58:06;101070.19;;;21.98;48.01
34073;BME280;20346;52.702;16.886;2022-07-21T04:00:35;101067.80;;;22.02;48.10
34073;BME280;20346;52.702;16.886;2022-07-21T04:03:04;101071.41;;;22.08;48.13
34073;BME280;20346;52.702;16.886;2022-07-21T04:05:31;101076.33;;;22.14;48.19
34073;BME280;20346;52.702;16.886;2022-07-21T04:07:59;101077.67;;;22.21;48.22
34073;BME280;20346;52.702;16.886;2022-07-21T04:10:28;101081.28;;;22.27;48.23
34073;BME280;20346;52.702;16.886;2022-07-21T04:12:59;101080.46;;;22.34;48.26
34073;BME280;20346;52.702;16.886;2022-07-21T04:15:27;101076.41;;;22.42;48.29
34073;BME280;20346;52.702;16.886;2022-07-21T04:17:54;101079.75;;;22.53;48.30
34073;BME280;20346;52.702;16.886;2022-07-21T04:20:21;101077.72;;;22.65;48.30
34073;BME280;20346;52.702;16.886;2022-07-21T04:22:48;101075.09;;;22.72;48.30
34073;BME280;20346;52.702;16.886;2022-07-21T04:25:17;101078.16;;;22.81;48.31
34073;BME280;20346;52.702;16.886;2022-07-21T04:27:46;101075.88;;;22.89;48.34
34073;BME280;20346;52.702;16.886;2022-07-21T04:30:16;101077.59;;;22.97;48.35
34073;BME280;20346;52.702;16.886;2022-07-21T04:32:44;101082.31;;;23.06;48.35
34073;BME280;20346;52.702;16.886;2022-07-21T04:35:12;101086.47;;;23.10;48.37
34073;BME280;20346;52.702;16.886;2022-07-21T04:37:39;101088.73;;;23.16;48.39
34073;BME280;20346;52.702;16.886;2022-07-21T04:40:08;101088.64;;;23.25;48.38
34073;BME280;20346;52.702;16.886;2022-07-21T04:42:36;101090.81;;;23.32;48.35
34073;BME280;20346;52.702;16.886;2022-07-21T04:45:04;101084.22;;;23.39;48.36
34073;BME280;20346;52.702;16.886;2022-07-21T04:47:31;101088.23;;;23.45;48.33
34073;BME280;20346;52.702;16.886;2022-07-21T04:49:58;101093.51;;;23.52;48.33
34073;BME280;20346;52.702;16.886;2022-07-21T04:52:24;101088.73;;;23.59;48.34
34073;BME280;20346;52.702;16.886;2022-07-21T04:54:51;101085.61;;;23.66;48.33
34073;BME280;20346;52.702;16.886;2022-07-21T04:57:17;101095.22;;;23.74;48.24
34073;BME280;20346;52.702;16.886;2022-07-21T04:59:44;101093.98;;;23.80;48.25
34073;BME280;20346;52.702;16.886;2022-07-21T05:02:10;101098.92;;;23.92;48.23
34073;BME280;20346;52.702;16.886;2022-07-21T05:04:37;101100.98;;;24.01;48.20
34073;BME280;20346;52.702;16.886;2022-07-21T05:07:03;101101.70;;;24.10;48.19
34073;BME280;20346;52.702;16.886;2022-07-21T05:09:29;101105.08;;;24.19;48.15
34073;BME280;20346;52.702;16.886;2022-07-21T05:12:02;101112.34;;;24.30;48.13
34073;BME280;20346;52.702;16.886;2022-07-21T05:14:29;101117.45;;;24.46;48.13
34073;BME280;20346;52.702;16.886;2022-07-21T05:16:56;101110.59;;;24.75;48.16
34073;BME280;20346;52.702;16.886;2022-07-21T05:19:22;101110.42;;;25.17;48.08
34073;BME280;20346;52.702;16.886;2022-07-21T05:21:49;101103.87;;;25.66;48.05
34073;BME280;20346;52.702;16.886;2022-07-21T05:24:16;101101.28;;;26.19;47.78
34073;BME280;20346;52.702;16.886;2022-07-21T05:26:42;101099.32;;;26.69;47.77
34073;BME280;20346;52.702;16.886;2022-07-21T05:29:09;101107.77;;;27.26;47.55
34073;BME280;20346;52.702;16.886;2022-07-21T05:31:35;101107.75;;;27.76;47.38
34073;BME280;20346;52.702;16.886;2022-07-21T05:34:02;101107.77;;;28.25;47.20
34073;BME280;20346;52.702;16.886;2022-07-21T05:36:28;101105.33;;;28.75;46.95
34073;BME280;20346;52.702;16.886;2022-07-21T05:38:55;101102.74;;;29.20;46.73
34073;BME280;20346;52.702;16.886;2022-07-21T05:41:21;101096.84;;;29.62;46.47
34073;BME280;20346;52.702;16.886;2022-07-21T05:43:48;101098.98;;;30.03;46.10
34073;BME280;20346;52.702;16.886;2022-07-21T05:46:14;101099.89;;;30.46;45.83
34073;BME280;20346;52.702;16.886;2022-07-21T05:48:41;101098.59;;;30.79;45.47
34073;BME280;20346;52.702;16.886;2022-07-21T05:51:07;101092.64;;;31.14;45.07
34073;BME280;20346;52.702;16.886;2022-07-21T05:53:37;101098.88;;;31.46;44.84
34073;BME280;20346;52.702;16.886;2022-07-21T05:56:04;101095.06;;;31.76;44.44
34073;BME280;20346;52.702;16.886;2022-07-21T05:58:33;101091.86;;;32.04;44.06
34073;BME280;20346;52.702;16.886;2022-07-21T06:01:01;101089.98;;;32.36;43.62
34073;BME280;20346;52.702;16.886;2022-07-21T06:03:41;101094.24;;;32.65;43.17
34073;BME280;20346;52.702;16.886;2022-07-21T06:06:13;101087.91;;;32.92;42.75
34073;BME280;20346;52.702;16.886;2022-07-21T06:08:45;101088.73;;;33.18;42.42
34073;BME280;20346;52.702;16.886;2022-07-21T06:11:18;101093.20;;;33.39;41.87
34073;BME280;20346;52.702;16.886;2022-07-21T06:13:46;101095.28;;;33.58;41.41
34073;BME280;20346;52.702;16.886;2022-07-21T06:16:13;101094.69;;;33.80;41.04
34073;BME280;20346;52.702;16.886;2022-07-21T06:18:40;101097.76;;;34.01;40.76
34073;BME280;20346;52.702;16.886;2022-07-21T06:21:06;101097.28;;;34.22;40.18
34073;BME280;20346;52.702;16.886;2022-07-21T06:23:35;101091.76;;;34.36;39.84
34073;BME280;20346;52.702;16.886;2022-07-21T06:26:02;101093.44;;;34.57;39.41
34073;BME280;20346;52.702;16.886;2022-07-21T06:28:28;101093.95;;;34.81;39.33
34073;BME280;20346;52.702;16.886;2022-07-21T06:30:54;101091.52;;;35.06;38.86
34073;BME280;20346;52.702;16.886;2022-07-21T06:33:21;101092.64;;;35.32;38.75
34073;BME280;20346;52.702;16.886;2022-07-21T06:35:47;101097.08;;;35.52;38.27
34073;BME280;20346;52.702;16.886;2022-07-21T06:38:14;101101.36;;;35.69;37.92
34073;BME280;20346;52.702;16.886;2022-07-21T06:40:40;101097.89;;;35.88;37.53
34073;BME280;20346;52.702;16.886;2022-07-21T06:43:07;101101.17;;;36.02;37.09
34073;BME280;20346;52.702;16.886;2022-07-21T06:45:33;101100.77;;;36.13;36.75
34073;BME280;20346;52.702;16.886;2022-07-21T06:48:07;101107.26;;;36.23;36.47
34073;BME280;20346;52.702;16.886;2022-07-21T06:50:34;101107.21;;;36.50;36.02
34073;BME280;20346;52.702;16.886;2022-07-21T06:53:09;101107.58;;;36.65;35.57
34073;BME280;20346;52.702;16.886;2022-07-21T06:55:36;101104.11;;;36.79;35.22
34073;BME280;20346;52.702;16.886;2022-07-21T06:58:10;101103.91;;;36.96;34.81
34073;BME280;20346;52.702;16.886;2022-07-21T07:00:41;101095.50;;;37.09;34.46
34073;BME280;20346;52.702;16.886;2022-07-21T07:03:09;101101.20;;;37.29;34.10
34073;BME280;20346;52.702;16.886;2022-07-21T07:05:36;101099.34;;;37.55;33.78
34073;BME280;20346;52.702;16.886;2022-07-21T07:08:02;101097.61;;;37.73;33.45
34073;BME280;20346;52.702;16.886;2022-07-21T07:10:30;101093.25;;;37.83;33.22
34073;BME280;20346;52.702;16.886;2022-07-21T07:12:56;101097.80;;;38.03;32.86
34073;BME280;20346;52.702;16.886;2022-07-21T07:15:23;101099.00;;;38.26;32.95
34073;BME280;20346;52.702;16.886;2022-07-21T07:17:50;101098.37;;;38.52;32.52
34073;BME280;20346;52.702;16.886;2022-07-21T07:20:17;101104.70;;;38.87;32.07
34073;BME280;20346;52.702;16.886;2022-07-21T07:22:43;101098.53;;;39.17;31.82
34073;BME280;20346;52.702;16.886;2022-07-21T07:25:10;101098.61;;;39.54;31.45
34073;BME280;20346;52.702;16.886;2022-07-21T07:27:36;101099.95;;;39.85;31.19
34073;BME280;20346;52.702;16.886;2022-07-21T07:30:03;101101.37;;;40.11;31.47
34073;BME280;20346;52.702;16.886;2022-07-21T07:32:30;101100.59;;;40.44;30.93
34073;BME280;20346;52.702;16.886;2022-07-21T07:34:56;101094.29;;;40.69;30.47
34073;BME280;20346;52.702;16.886;2022-07-21T07:37:22;101098.89;;;40.82;30.11
34073;BME280;20346;52.702;16.886;2022-07-21T07:39:49;101097.83;;;40.96;30.32
34073;BME280;20346;52.702;16.886;2022-07-21T07:42:15;101100.63;;;41.06;29.75
34073;BME280;20346;52.702;16.886;2022-07-21T07:44:41;101093.23;;;40.97;29.19
34073;BME280;20346;52.702;16.886;2022-07-21T07:47:07;101091.17;;;40.86;28.88
34073;BME280;20346;52.702;16.886;2022-07-21T07:49:34;101092.95;;;40.76;28.95
34073;BME280;20346;52.702;16.886;2022-07-21T07:52:00;101090.24;;;40.76;28.45
34073;BME280;20346;52.702;16.886;2022-07-21T07:54:28;101102.97;;;40.76;28.76
34073;BME280;20346;52.702;16.886;2022-07-21T07:56:55;101100.44;;;40.74;28.06
34073;BME280;20346;52.702;16.886;2022-07-21T07:59:22;101102.66;;;40.81;27.62
34073;BME280;20346;52.702;16.886;2022-07-21T08:01:47;101096.38;;;40.87;27.32
34073;BME280;20346;52.702;16.886;2022-07-21T08:04:16;101098.88;;;40.89;27.46
34073;BME280;20346;52.702;16.886;2022-07-21T08:06:43;101102.75;;;40.84;26.96
34073;BME280;20346;52.702;16.886;2022-07-21T08:09:09;101097.54;;;40.82;26.51
34073;BME280;20346;52.702;16.886;2022-07-21T08:11:35;101098.45;;;40.98;26.93
34073;BME280;20346;52.702;16.886;2022-07-21T08:14:01;101095.88;;;41.10;26.41
34073;BME280;20346;52.702;16.886;2022-07-21T08:16:27;101095.25;;;41.21;25.94
34073;BME280;20346;52.702;16.886;2022-07-21T08:18:53;101089.28;;;41.28;25.82
34073;BME280;20346;52.702;16.886;2022-07-21T08:21:19;101091.18;;;41.21;25.72
34073;BME280;20346;52.702;16.886;2022-07-21T08:23:45;101076.34;;;41.17;25.87
34073;BME280;20346;52.702;16.886;2022-07-21T08:26:11;101072.39;;;41.20;25.52
34073;BME280;20346;52.702;16.886;2022-07-21T08:28:37;101082.34;;;41.39;25.59
34073;BME280;20346;52.702;16.886;2022-07-21T08:31:03;101078.64;;;41.49;25.18
34073;BME280;20346;52.702;16.886;2022-07-21T08:33:30;101078.14;;;41.65;24.90
34073;BME280;20346;52.702;16.886;2022-07-21T08:35:56;101079.87;;;41.91;24.59
34073;BME280;20346;52.702;16.886;2022-07-21T08:38:22;101075.73;;;42.05;24.90
34073;BME280;20346;52.702;16.886;2022-07-21T08:40:49;101074.47;;;42.01;24.34
34073;BME280;20346;52.702;16.886;2022-07-21T08:43:16;101072.20;;;41.97;24.24
34073;BME280;20346;52.702;16.886;2022-07-21T08:45:42;101065.19;;;41.99;24.20
34073;BME280;20346;52.702;16.886;2022-07-21T08:48:09;101063.43;;;41.95;23.87
34073;BME280;20346;52.702;16.886;2022-07-21T08:50:36;101065.49;;;41.84;23.81
34073;BME280;20346;52.702;16.886;2022-07-21T08:53:04;101059.88;;;41.79;24.11
34073;BME280;20346;52.702;16.886;2022-07-21T08:55:32;101055.14;;;41.68;23.64
34073;BME280;20346;52.702;16.886;2022-07-21T08:58:00;101050.69;;;41.42;23.58
34073;BME280;20346;52.702;16.886;2022-07-21T09:00:26;101042.34;;;41.08;23.30
34073;BME280;20346;52.702;16.886;2022-07-21T09:03:15;101038.29;;;40.79;23.25
34073;BME280;20346;52.702;16.886;2022-07-21T09:08:35;101046.13;;;40.06;23.09
34073;BME280;20346;52.702;16.886;2022-07-21T09:11:17;101039.07;;;39.61;23.03
34073;BME280;20346;52.702;16.886;2022-07-21T09:13:50;101031.97;;;39.23;23.00
34073;BME280;20346;52.702;16.886;2022-07-21T09:16:41;101034.98;;;38.83;23.03
34073;BME280;20346;52.702;16.886;2022-07-21T09:19:19;101031.62;;;38.46;23.06
34073;BME280;20346;52.702;16.886;2022-07-21T09:21:50;101028.50;;;38.21;23.04
34073;BME280;20346;52.702;16.886;2022-07-21T09:24:23;101025.62;;;37.91;23.07
34073;BME280;20346;52.702;16.886;2022-07-21T09:27:07;101015.66;;;37.70;23.11
34073;BME280;20346;52.702;16.886;2022-07-21T09:29:46;101014.91;;;37.40;23.04
34073;BME280;20346;52.702;16.886;2022-07-21T09:34:59;101019.63;;;36.98;23.24
34073;BME280;20346;52.702;16.886;2022-07-21T09:37:28;101010.37;;;36.86;23.29
34073;BME280;20346;52.702;16.886;2022-07-21T09:39:57;101016.28;;;36.66;23.35
34073;BME280;20346;52.702;16.886;2022-07-21T09:42:32;101013.30;;;36.61;23.49
34073;BME280;20346;52.702;16.886;2022-07-21T09:45:07;101006.14;;;36.54;23.53
34073;BME280;20346;52.702;16.886;2022-07-21T09:47:36;101007.67;;;36.37;23.49
34073;BME280;20346;52.702;16.886;2022-07-21T09:50:08;101008.95;;;36.27;23.61
34073;BME280;20346;52.702;16.886;2022-07-21T09:52:37;101000.41;;;36.19;23.67
34073;BME280;20346;52.702;16.886;2022-07-21T09:55:06;100998.59;;;36.15;23.71
34073;BME280;20346;52.702;16.886;2022-07-21T09:57:38;101004.66;;;36.13;23.83
34073;BME280;20346;52.702;16.886;2022-07-21T10:00:08;101007.20;;;36.11;23.87
34073;BME280;20346;52.702;16.886;2022-07-21T10:02:36;101007.42;;;36.05;23.86
34073;BME280;20346;52.702;16.886;2022-07-21T10:05:07;100995.34;;;36.01;23.95
34073;BME280;20346;52.702;16.886;2022-07-21T10:07:37;101002.76;;;35.99;24.00
34073;BME280;20346;52.702;16.886;2022-07-21T10:10:05;100997.41;;;35.95;24.01
34073;BME280;20346;52.702;16.886;2022-07-21T10:12:33;100990.86;;;35.94;24.09
34073;BME280;20346;52.702;16.886;2022-07-21T10:14:59;100996.93;;;35.92;24.09
34073;BME280;20346;52.702;16.886;2022-07-21T10:17:29;100994.56;;;35.93;24.12
34073;BME280;20346;52.702;16.886;2022-07-21T10:25:26;100981.05;;;35.82;24.21
34073;BME280;20346;52.702;16.886;2022-07-21T10:28:19;100982.70;;;35.87;24.23
34073;BME280;20346;52.702;16.886;2022-07-21T10:30:50;100972.23;;;35.88;24.30
34073;BME280;20346;52.702;16.886;2022-07-21T10:34:08;100976.92;;;35.90;24.27
34073;BME280;20346;52.702;16.886;2022-07-21T10:36:09;100976.77;;;35.88;24.13
34073;BME280;20346;52.702;16.886;2022-07-21T10:41:46;100968.61;;;35.81;24.21
34073;BME280;20346;52.702;16.886;2022-07-21T10:47:11;100973.97;;;35.85;24.23
34073;BME280;20346;52.702;16.886;2022-07-21T10:50:01;100963.20;;;35.85;24.23
34073;BME280;20346;52.702;16.886;2022-07-21T10:55:13;100961.97;;;35.88;24.12
34073;BME280;20346;52.702;16.886;2022-07-21T10:57:46;100964.30;;;35.91;24.15
34073;BME280;20346;52.702;16.886;2022-07-21T11:00:24;100954.34;;;35.95;24.08
34073;BME280;20346;52.702;16.886;2022-07-21T11:06:11;100954.81;;;35.99;24.01
34073;BME280;20346;52.702;16.886;2022-07-21T11:14:43;100956.38;;;36.12;24.03
34073;BME280;20346;52.702;16.886;2022-07-21T11:17:29;100955.17;;;36.14;23.97
34073;BME280;20346;52.702;16.886;2022-07-21T11:19:57;100971.63;;;36.20;23.96
34073;BME280;20346;52.702;16.886;2022-07-21T11:22:26;100956.77;;;36.24;23.89
34073;BME280;20346;52.702;16.886;2022-07-21T11:25:06;100951.75;;;36.21;23.77
34073;BME280;20346;52.702;16.886;2022-07-21T11:27:34;100952.91;;;36.22;23.74
34073;BME280;20346;52.702;16.886;2022-07-21T11:30:06;100940.61;;;36.24;23.74
34073;BME280;20346;52.702;16.886;2022-07-21T11:32:35;100954.07;;;36.28;23.67
34073;BME280;20346;52.702;16.886;2022-07-21T11:35:05;100947.48;;;36.30;23.53
34073;BME280;20346;52.702;16.886;2022-07-21T11:37:41;100950.68;;;36.30;23.52
34073;BME280;20346;52.702;16.886;2022-07-21T11:42:44;100931.84;;;36.26;23.27
34073;BME280;20346;52.702;16.886;2022-07-21T11:45:14;100923.61;;;36.27;23.20
34073;BME280;20346;52.702;16.886;2022-07-21T11:47:41;100928.31;;;36.25;23.18
34073;BME280;20346;52.702;16.886;2022-07-21T11:50:11;100915.35;;;36.25;23.14
34073;BME280;20346;52.702;16.886;2022-07-21T11:52:39;100915.53;;;36.27;23.14
34073;BME280;20346;52.702;16.886;2022-07-21T11:55:08;100911.81;;;36.28;22.98
34073;BME280;20346;52.702;16.886;2022-07-21T11:57:36;100902.53;;;36.31;23.01
34073;BME280;20346;52.702;16.886;2022-07-21T12:00:09;100911.08;;;36.34;22.93
34073;BME280;20346;52.702;16.886;2022-07-21T12:02:36;100908.38;;;36.34;22.82
34073;BME280;20346;52.702;16.886;2022-07-21T12:05:05;100916.83;;;36.31;22.65
34073;BME280;20346;52.702;16.886;2022-07-21T12:07:41;100909.59;;;36.32;22.73
34073;BME280;20346;52.702;16.886;2022-07-21T12:10:12;100897.79;;;36.33;22.69
34073;BME280;20346;52.702;16.886;2022-07-21T12:12:43;100909.08;;;36.32;22.63
34073;BME280;20346;52.702;16.886;2022-07-21T12:15:23;100905.03;;;36.32;22.58
34073;BME280;20346;52.702;16.886;2022-07-21T12:17:57;100907.87;;;36.35;22.62
34073;BME280;20346;52.702;16.886;2022-07-21T12:20:37;100899.75;;;36.39;22.56
34073;BME280;20346;52.702;16.886;2022-07-21T12:23:28;100892.94;;;36.43;22.59
34073;BME280;20346;52.702;16.886;2022-07-21T12:25:52;100894.42;;;36.45;22.56
34073;BME280;20346;52.702;16.886;2022-07-21T12:28:20;100904.31;;;36.49;22.46
34073;BME280;20346;52.702;16.886;2022-07-21T12:30:48;100897.25;;;36.48;22.51
34073;BME280;20346;52.702;16.886;2022-07-21T12:33:21;100888.84;;;36.47;22.40
34073;BME280;20346;52.702;16.886;2022-07-21T12:36:04;100886.66;;;36.46;22.44
34073;BME280;20346;52.702;16.886;2022-07-21T12:38:45;100888.33;;;36.47;22.31
34073;BME280;20346;52.702;16.886;2022-07-21T12:41:21;100893.21;;;36.48;22.35
34073;BME280;20346;52.702;16.886;2022-07-21T12:44:00;100891.48;;;36.51;22.29
34073;BME280;20346;52.702;16.886;2022-07-21T12:46:32;100888.42;;;36.54;22.18
34073;BME280;20346;52.702;16.886;2022-07-21T12:49:05;100883.55;;;36.54;22.09
34073;BME280;20346;52.702;16.886;2022-07-21T12:51:36;100884.89;;;36.54;22.09
34073;BME280;20346;52.702;16.886;2022-07-21T12:54:05;100875.92;;;36.57;21.99
34073;BME280;20346;52.702;16.886;2022-07-21T12:56:34;100873.37;;;36.60;21.92
34073;BME280;20346;52.702;16.886;2022-07-21T12:59:06;100869.97;;;36.62;21.91
34073;BME280;20346;52.702;16.886;2022-07-21T13:01:33;100865.74;;;36.63;21.90
34073;BME280;20346;52.702;16.886;2022-07-21T13:04:02;100869.92;;;36.66;21.90
34073;BME280;20346;52.702;16.886;2022-07-21T13:06:29;100870.19;;;36.71;21.82
34073;BME280;20346;52.702;16.886;2022-07-21T13:08:56;100868.33;;;36.71;21.79
34073;BME280;20346;52.702;16.886;2022-07-21T13:11:23;100852.54;;;36.68;21.74
34073;BME280;20346;52.702;16.886;2022-07-21T13:13:50;100851.06;;;36.66;21.76
34073;BME280;20346;52.702;16.886;2022-07-21T13:16:18;100852.41;;;36.66;21.75
34073;BME280;20346;52.702;16.886;2022-07-21T13:18:45;100853.19;;;36.70;21.69
34073;BME280;20346;52.702;16.886;2022-07-21T13:21:12;100858.06;;;36.71;21.64
34073;BME280;20346;52.702;16.886;2022-07-21T13:23:38;100853.05;;;36.68;21.61